createdAt,value
2018-12-09T00:01:31.519Z,1.1
2018-12-09T00:04:31.584Z,1.2
2018-12-09T00:07:31.646Z,1.3
2018-12-09T00:10:31.777Z,1
2018-12-09T00:13:31.658Z,0.9
2018-12-09T00:16:31.949Z,1.1
2018-12-09T00:19:32.087Z,1
2018-12-09T00:22:31.585Z,1.1
2018-12-09T00:25:31.861Z,1
2018-12-09T00:28:31.956Z,1
2018-12-09T00:31:32.135Z,1.2
2018-12-09T00:34:31.635Z,1
2018-12-09T00:37:32.126Z,1.2
2018-12-09T00:40:31.941Z,1.1
2018-12-09T00:43:32.060Z,1
2018-12-09T00:46:32.186Z,1.2
2018-12-09T00:49:31.705Z,1.1
2018-12-09T00:52:31.635Z,0.9
2018-12-09T00:55:31.552Z,1.1
2018-12-09T00:58:31.810Z,1.1
2018-12-09T01:01:32.346Z,0.8
2018-12-09T01:04:31.806Z,0.9
2018-12-09T01:07:32.137Z,1
2018-12-09T01:10:32.057Z,0.9
2018-12-09T01:13:31.705Z,0.8
2018-12-09T01:16:31.435Z,1
2018-12-09T01:19:32.115Z,1.1
2018-12-09T01:22:31.878Z,1.3
2018-12-09T01:25:31.899Z,1.2
2018-12-09T01:28:31.745Z,0.9
2018-12-09T01:31:31.797Z,1.2
2018-12-09T01:34:31.542Z,1
2018-12-09T01:37:31.647Z,1.1
2018-12-09T01:40:32.013Z,1.3
2018-12-09T01:43:32.398Z,1.2
2018-12-09T01:46:31.954Z,0.9
2018-12-09T01:49:32.158Z,1.3
2018-12-09T01:52:31.542Z,1
2018-12-09T01:55:32.013Z,1.1
2018-12-09T01:58:33.709Z,1
2018-12-09T02:01:31.499Z,1
2018-12-09T02:04:31.896Z,0.8
2018-12-09T02:07:31.991Z,0.9
2018-12-09T02:10:32.443Z,1
2018-12-09T02:13:31.756Z,1.2
2018-12-09T02:16:31.429Z,1
2018-12-09T02:19:32.078Z,0.9
2018-12-09T02:22:31.662Z,1.1
2018-12-09T02:25:31.799Z,0.8
2018-12-09T02:28:34.487Z,0.9
2018-12-09T02:31:31.679Z,0.9
2018-12-09T02:34:31.891Z,0.9
2018-12-09T02:37:31.576Z,0.9
2018-12-09T02:40:31.529Z,0.9
2018-12-09T02:43:31.888Z,1
2018-12-09T02:46:31.588Z,0.9
2018-12-09T02:49:31.594Z,1.1
2018-12-09T02:52:32.235Z,1
2018-12-09T02:55:31.414Z,0.9
2018-12-09T02:58:32.365Z,1.1
2018-12-09T03:01:32.169Z,1
2018-12-09T03:04:31.463Z,1
2018-12-09T03:07:33.741Z,1
2018-12-09T03:10:31.846Z,0.9
2018-12-09T03:13:31.788Z,1.1
2018-12-09T03:16:32.197Z,1.1
2018-12-09T03:19:31.907Z,0.9
2018-12-09T03:22:31.824Z,1.1
2018-12-09T03:25:31.690Z,1
2018-12-09T03:28:31.957Z,0.9
2018-12-09T03:31:31.665Z,1
2018-12-09T03:34:31.611Z,1.1
2018-12-09T03:37:31.974Z,1.2
2018-12-09T03:40:31.441Z,1.3
2018-12-09T03:43:31.748Z,1
2018-12-09T03:46:31.722Z,1.2
2018-12-09T03:49:31.924Z,1
2018-12-09T03:52:31.721Z,1.7
2018-12-09T03:55:34.393Z,1.1
2018-12-09T03:58:31.580Z,1.1
2018-12-09T04:01:32.101Z,1
2018-12-09T04:04:33.065Z,0.9
2018-12-09T04:07:31.724Z,1
2018-12-09T04:10:31.689Z,1
2018-12-09T04:13:31.735Z,1.4
2018-12-09T04:16:32.065Z,1.6
2018-12-09T04:19:31.720Z,1.2
2018-12-09T04:22:32.388Z,1.1
2018-12-09T04:25:31.639Z,1.1
2018-12-09T04:28:31.988Z,1.5
2018-12-09T04:31:31.661Z,1.1
2018-12-09T04:34:31.723Z,1.1
2018-12-09T04:37:31.646Z,1.3
2018-12-09T04:40:31.815Z,1.1
2018-12-09T04:43:31.439Z,1.1
2018-12-09T04:46:31.976Z,0.9
2018-12-09T04:49:31.573Z,0.9
2018-12-09T04:52:34.802Z,1
2018-12-09T04:55:31.771Z,1.2
2018-12-09T04:58:32.023Z,1.1
2018-12-09T05:01:33.536Z,1.1
2018-12-09T05:04:32.057Z,1.2
2018-12-09T05:07:31.911Z,1.2
2018-12-09T05:10:31.586Z,1.2
2018-12-09T05:13:32.080Z,1.4
2018-12-09T05:16:31.795Z,1.1
2018-12-09T05:19:31.593Z,1.1
2018-12-09T05:22:31.610Z,1.1
2018-12-09T05:25:31.747Z,1.2
2018-12-09T05:28:31.378Z,1.2
2018-12-09T05:31:31.655Z,1.2
2018-12-09T05:34:31.653Z,1.4
2018-12-09T05:37:32.311Z,1
2018-12-09T05:40:31.638Z,1.2
2018-12-09T05:43:32.286Z,1.1
2018-12-09T05:46:31.541Z,1.2
2018-12-09T05:49:31.426Z,1.2
2018-12-09T05:52:32.002Z,1.3
2018-12-09T05:55:31.542Z,1.1
2018-12-09T05:58:31.486Z,1.2
2018-12-09T06:01:31.601Z,1.4
2018-12-09T06:04:31.844Z,1.1
2018-12-09T06:07:31.808Z,1.3
2018-12-09T06:10:31.532Z,1.2
2018-12-09T06:13:31.384Z,1.4
2018-12-09T06:16:31.455Z,1.2
2018-12-09T06:19:31.426Z,1.2
2018-12-09T06:22:31.674Z,1.1
2018-12-09T06:25:34.349Z,1.6
2018-12-09T06:28:31.379Z,1.3
2018-12-09T06:31:31.713Z,1.2
2018-12-09T06:34:33.670Z,1.2
2018-12-09T06:37:31.891Z,0.9
2018-12-09T06:40:31.994Z,1.3
2018-12-09T06:43:31.894Z,1.1
2018-12-09T06:46:31.653Z,1.2
2018-12-09T06:49:31.593Z,1.2
2018-12-09T06:52:31.541Z,1.1
2018-12-09T06:55:31.756Z,1.2
2018-12-09T06:58:31.744Z,1.1
2018-12-09T07:01:33.123Z,1.2
2018-12-09T07:04:31.698Z,1.2
2018-12-09T07:07:31.557Z,0.9
2018-12-09T07:10:34.144Z,1.2
2018-12-09T07:13:31.712Z,1.1
2018-12-09T07:16:31.391Z,1.2
2018-12-09T07:19:32.970Z,1
2018-12-09T07:22:31.606Z,0.9
2018-12-09T07:25:31.430Z,1.1
2018-12-09T07:28:32.057Z,1
2018-12-09T07:31:31.840Z,1.2
2018-12-09T07:34:31.488Z,1
2018-12-09T07:37:31.662Z,0.9
2018-12-09T07:40:31.934Z,1.2
2018-12-09T07:43:31.366Z,1.1
2018-12-09T07:46:31.753Z,1.1
2018-12-09T07:49:31.401Z,1.1
2018-12-09T07:52:31.251Z,1
2018-12-09T07:55:31.584Z,0.8
2018-12-09T07:58:31.437Z,0.9
2018-12-09T08:01:31.828Z,0.9
2018-12-09T08:04:31.529Z,1.2
2018-12-09T08:07:31.358Z,1
2018-12-09T08:10:31.422Z,0.9
2018-12-09T08:13:31.461Z,1.1
2018-12-09T08:16:31.407Z,1.1
2018-12-09T08:19:31.746Z,1.1
2018-12-09T08:22:32.053Z,1.1
2018-12-09T08:25:31.283Z,1.1
2018-12-09T08:28:31.389Z,1
2018-12-09T08:31:31.626Z,1.1
2018-12-09T08:34:31.786Z,1.3
2018-12-09T08:37:32.240Z,1.7
2018-12-09T08:40:31.867Z,11.3
2018-12-09T08:43:31.530Z,5.3
2018-12-09T08:46:31.776Z,3.7
2018-12-09T08:49:31.419Z,7.9
2018-12-09T08:52:32.070Z,6.3
2018-12-09T08:55:31.288Z,1.8
2018-12-09T08:58:31.403Z,3.3
2018-12-09T09:01:31.545Z,3.2
2018-12-09T09:04:32.677Z,3.5
2018-12-09T09:07:31.359Z,2.2
2018-12-09T09:10:31.424Z,4.5
2018-12-09T09:13:31.440Z,3.2
2018-12-09T09:16:31.503Z,4.5
2018-12-09T09:19:31.410Z,5.5
2018-12-09T09:22:31.351Z,5
2018-12-09T09:25:31.609Z,6.2
2018-12-09T09:28:31.369Z,7.6
2018-12-09T09:31:31.386Z,3.2
2018-12-09T09:34:31.478Z,3.6
2018-12-09T09:37:31.824Z,4.6
2018-12-09T09:40:31.793Z,4.9
2018-12-09T09:43:31.530Z,2.5
2018-12-09T09:46:31.435Z,3.5
2018-12-09T09:49:31.773Z,2.3
2018-12-09T09:52:31.553Z,2.1
2018-12-09T09:55:31.859Z,1.9
2018-12-09T09:58:31.458Z,2.1
2018-12-09T10:01:31.927Z,3.7
2018-12-09T10:04:31.834Z,2.5
2018-12-09T10:07:31.404Z,1.6
2018-12-09T10:10:31.693Z,1.8
2018-12-09T10:13:31.513Z,4.5
2018-12-09T10:16:31.318Z,2.7
2018-12-09T10:19:31.497Z,2.1
2018-12-09T10:22:31.450Z,2.9
2018-12-09T10:25:31.650Z,2.4
2018-12-09T10:28:31.714Z,1.9
2018-12-09T10:31:31.356Z,1.7
2018-12-09T10:34:39.335Z,3.7
2018-12-09T10:37:31.838Z,2.3
2018-12-09T10:40:31.280Z,3.9
2018-12-09T10:43:31.448Z,3.2
2018-12-09T10:46:31.450Z,1.6
2018-12-09T10:49:31.493Z,5.1
2018-12-09T10:52:31.560Z,3.1
2018-12-09T10:55:31.464Z,5
2018-12-09T10:58:31.448Z,6.4
2018-12-09T11:01:31.754Z,5.8
2018-12-09T11:04:31.366Z,3
2018-12-09T11:07:31.468Z,6.3
2018-12-09T11:10:31.693Z,3
2018-12-09T11:13:31.795Z,8.8
2018-12-09T11:16:31.943Z,3.9
2018-12-09T11:19:31.878Z,3.8
2018-12-09T11:22:31.432Z,5.4
2018-12-09T11:25:31.465Z,4.7
2018-12-09T11:28:31.552Z,3.4
2018-12-09T11:31:31.406Z,4.5
2018-12-09T11:34:31.842Z,2.3
2018-12-09T11:37:31.950Z,3.2
2018-12-09T11:40:31.387Z,5
2018-12-09T11:43:31.777Z,6
2018-12-09T11:46:31.581Z,2.4
2018-12-09T11:49:31.621Z,2.7
2018-12-09T11:52:31.520Z,2.1
2018-12-09T11:55:31.688Z,2.2
2018-12-09T11:58:31.414Z,2.9
2018-12-09T12:01:31.415Z,2.7
2018-12-09T12:04:31.686Z,2.3
2018-12-09T12:07:31.358Z,2
2018-12-09T12:10:31.412Z,2.5
2018-12-09T12:13:31.336Z,2.7
2018-12-09T12:16:31.378Z,3.2
2018-12-09T12:19:31.423Z,1.9
2018-12-09T12:22:32.013Z,2.7
2018-12-09T12:25:31.254Z,2.4
2018-12-09T12:28:31.422Z,5.6
2018-12-09T12:31:31.641Z,2.7
2018-12-09T12:34:31.573Z,4.7
2018-12-09T12:37:31.269Z,2.8
2018-12-09T12:40:31.598Z,1.6
2018-12-09T12:43:31.853Z,2.6
2018-12-09T12:46:31.265Z,2.4
2018-12-09T12:49:31.347Z,1.8
2018-12-09T12:52:31.524Z,2.1
2018-12-09T12:55:31.601Z,1.6
2018-12-09T12:58:31.543Z,2.1
2018-12-09T13:01:31.575Z,3.7
2018-12-09T13:04:31.829Z,1.6
2018-12-09T13:07:31.264Z,1.3
2018-12-09T13:10:31.300Z,2.7
2018-12-09T13:13:31.725Z,1.4
2018-12-09T13:16:31.257Z,1.3
2018-12-09T13:19:31.418Z,2.2
2018-12-09T13:22:33.943Z,1.4
2018-12-09T13:25:32.382Z,2.1
2018-12-09T13:28:31.400Z,1.4
2018-12-09T13:31:31.321Z,4.1
2018-12-09T13:34:31.453Z,6.9
2018-12-09T13:37:31.253Z,7.1
2018-12-09T13:40:31.358Z,5.4
2018-12-09T13:43:31.733Z,3.2
2018-12-09T13:46:31.442Z,4.2
2018-12-09T13:49:31.178Z,2.2
2018-12-09T13:52:31.281Z,4.4
2018-12-09T13:55:31.378Z,2.2
2018-12-09T13:58:31.435Z,2
2018-12-09T14:01:32.446Z,2.2
2018-12-09T14:04:32.750Z,2.2
2018-12-09T14:07:32.363Z,2.9
2018-12-09T14:10:32.750Z,2.3
2018-12-09T14:13:31.707Z,1.8
2018-12-09T14:16:31.439Z,1.7
2018-12-09T14:19:31.729Z,1.8
2018-12-09T14:22:31.337Z,1.6
2018-12-09T14:25:31.376Z,2.9
2018-12-09T14:28:31.562Z,2.4
2018-12-09T14:31:31.344Z,1.8
2018-12-09T14:34:31.190Z,2.6
2018-12-09T14:37:31.329Z,2.2
2018-12-09T14:40:31.488Z,2.7
2018-12-09T14:43:31.923Z,2
2018-12-09T14:46:31.413Z,2
2018-12-09T14:49:31.510Z,1.7
2018-12-09T14:52:31.852Z,2
2018-12-09T14:55:31.324Z,2
2018-12-09T14:58:31.620Z,3.1
2018-12-09T15:01:31.848Z,1.6
2018-12-09T15:04:31.121Z,1.7
2018-12-09T15:07:31.327Z,1.5
2018-12-09T15:10:31.509Z,2
2018-12-09T15:13:31.421Z,1.2
2018-12-09T15:16:31.751Z,1.2
2018-12-09T15:19:31.318Z,1.6
2018-12-09T15:22:31.364Z,3.6
2018-12-09T15:25:31.280Z,1.4
2018-12-09T15:28:31.400Z,1.2
2018-12-09T15:31:31.733Z,1.7
2018-12-09T15:34:31.203Z,1.7
2018-12-09T15:37:31.875Z,2
2018-12-09T15:40:31.246Z,1.6
2018-12-09T15:43:31.238Z,1.4
2018-12-09T15:46:31.290Z,1.9
2018-12-09T15:49:35.345Z,1.2
2018-12-09T15:52:31.414Z,2.2
2018-12-09T15:55:31.652Z,1.2
2018-12-09T15:58:31.604Z,1.6
2018-12-09T16:01:31.438Z,3.5
2018-12-09T16:04:31.654Z,2.8
2018-12-09T16:07:31.154Z,2.6
2018-12-09T16:10:31.559Z,3
2018-12-09T16:13:31.343Z,3.9
2018-12-09T16:16:31.895Z,3.2
2018-12-09T16:19:31.539Z,3.8
2018-12-09T16:22:31.602Z,2.8
2018-12-09T16:25:31.263Z,4.1
2018-12-09T16:28:31.491Z,4.8
2018-12-09T16:31:31.619Z,2.8
2018-12-09T16:34:31.274Z,3.2
2018-12-09T16:37:31.518Z,2.9
2018-12-09T16:40:31.279Z,4.7
2018-12-09T16:43:31.322Z,3.7
2018-12-09T16:46:31.437Z,3.7
2018-12-09T16:49:31.317Z,4.8
2018-12-09T16:52:31.231Z,5.2
2018-12-09T16:55:31.278Z,6.3
2018-12-09T16:58:31.344Z,5.3
2018-12-09T17:01:31.625Z,3.1
2018-12-09T17:04:31.339Z,3.7
2018-12-09T17:07:31.573Z,3.7
2018-12-09T17:10:31.481Z,3
2018-12-09T17:13:31.219Z,3.9
2018-12-09T17:16:31.556Z,4.2
2018-12-09T17:19:31.434Z,4.2
2018-12-09T17:22:31.627Z,2.8
2018-12-09T17:25:31.314Z,4.6
2018-12-09T17:28:31.405Z,3.2
2018-12-09T17:31:31.400Z,3.5
2018-12-09T17:34:31.229Z,2.8
2018-12-09T17:37:31.230Z,2.5
2018-12-09T17:40:31.870Z,4
2018-12-09T17:43:31.350Z,2.4
2018-12-09T17:46:31.276Z,8.3
2018-12-09T17:49:31.340Z,2.6
2018-12-09T17:52:31.378Z,2.3
2018-12-09T17:55:31.296Z,1.8
2018-12-09T17:58:31.295Z,1.6
2018-12-09T18:01:31.326Z,3.6
2018-12-09T18:04:31.154Z,2
2018-12-09T18:07:31.619Z,1.9
2018-12-09T18:10:31.322Z,3.1
2018-12-09T18:13:31.313Z,2
2018-12-09T18:16:31.533Z,1.6
2018-12-09T18:19:31.416Z,1.7
2018-12-09T18:22:31.159Z,1.5
2018-12-09T18:25:31.241Z,1.9
2018-12-09T18:28:31.706Z,3.3
2018-12-09T18:31:31.499Z,1.6
2018-12-09T18:34:31.240Z,1.7
2018-12-09T18:37:31.405Z,2.8
2018-12-09T18:40:31.079Z,2.2
2018-12-09T18:43:31.248Z,1.8
2018-12-09T18:46:31.396Z,1.4
2018-12-09T18:49:31.136Z,1.5
2018-12-09T18:52:31.531Z,2
2018-12-09T18:55:31.242Z,1.5
2018-12-09T18:58:31.070Z,4.9
2018-12-09T19:01:31.541Z,5.2
2018-12-09T19:04:31.282Z,3
2018-12-09T19:07:31.656Z,2.6
2018-12-09T19:10:31.353Z,2
2018-12-09T19:13:31.305Z,1.5
2018-12-09T19:16:31.033Z,1.8
2018-12-09T19:19:31.344Z,2.8
2018-12-09T19:22:31.286Z,3
2018-12-09T19:25:31.462Z,2.9
2018-12-09T19:28:31.488Z,1.7
2018-12-09T19:31:31.295Z,1.6
2018-12-09T19:34:31.265Z,1.5
2018-12-09T19:37:31.244Z,1.9
2018-12-09T19:40:31.362Z,2
2018-12-09T19:43:31.144Z,1.6
2018-12-09T19:46:31.268Z,1.4
2018-12-09T19:49:31.639Z,2.5
2018-12-09T19:52:31.340Z,1.4
2018-12-09T19:55:31.243Z,3.3
2018-12-09T19:58:31.272Z,1.9
2018-12-09T20:01:31.393Z,1.9
2018-12-09T20:04:31.469Z,1.5
2018-12-09T20:07:31.201Z,2.9
2018-12-09T20:10:31.441Z,1.4
2018-12-09T20:13:31.478Z,1.5
2018-12-09T20:16:31.194Z,5.9
2018-12-09T20:19:31.281Z,1.4
2018-12-09T20:22:31.101Z,2.9
2018-12-09T20:25:31.086Z,3.2
2018-12-09T20:28:31.342Z,3.2
2018-12-09T20:31:31.285Z,2.9
2018-12-09T20:34:31.349Z,2.2
2018-12-09T20:37:31.755Z,2.2
2018-12-09T20:40:31.610Z,1.8
2018-12-09T20:43:31.207Z,2.3
2018-12-09T20:46:31.529Z,1.3
2018-12-09T20:49:31.452Z,2.6
2018-12-09T20:52:31.098Z,1.6
2018-12-09T20:55:31.375Z,2.7
2018-12-09T20:58:31.233Z,2.4
2018-12-09T21:01:31.331Z,2
2018-12-09T21:04:31.471Z,1.6
2018-12-09T21:07:31.118Z,1.7
2018-12-09T21:10:31.111Z,1.4
2018-12-09T21:13:31.153Z,1.9
2018-12-09T21:16:31.345Z,1.4
2018-12-09T21:19:31.982Z,2.2
2018-12-09T21:22:31.231Z,1.6
2018-12-09T21:25:31.276Z,1.4
2018-12-09T21:28:32.013Z,1.8
2018-12-09T21:31:31.282Z,1.7
2018-12-09T21:34:31.223Z,1.5
2018-12-09T21:37:31.476Z,1.4
2018-12-09T21:40:31.007Z,2.4
2018-12-09T21:43:32.172Z,1.3
2018-12-09T21:46:31.245Z,1.7
2018-12-09T21:49:31.042Z,2.2
2018-12-09T21:52:31.398Z,1.3
2018-12-09T21:55:31.264Z,1.4
2018-12-09T21:58:31.185Z,1.3
2018-12-09T22:01:31.311Z,2
2018-12-09T22:04:31.289Z,1.3
2018-12-09T22:07:31.243Z,2.2
2018-12-09T22:10:31.231Z,1.2
2018-12-09T22:13:31.237Z,1.3
2018-12-09T22:16:31.245Z,1.3
2018-12-09T22:19:31.975Z,1.1
2018-12-09T22:22:31.083Z,1.2
2018-12-09T22:25:31.162Z,1.3
2018-12-09T22:28:31.315Z,1.4
2018-12-09T22:31:31.225Z,1.3
2018-12-09T22:34:31.024Z,1.3
2018-12-09T22:37:31.115Z,1.3
2018-12-09T22:40:31.209Z,1.6
2018-12-09T22:43:30.993Z,2
2018-12-09T22:46:31.187Z,1.4
2018-12-09T22:49:31.198Z,1.5
2018-12-09T22:52:31.299Z,1.3
2018-12-09T22:55:31.553Z,1.3
2018-12-09T22:58:32.013Z,1.4
2018-12-09T23:01:31.151Z,1.5
2018-12-09T23:04:31.460Z,1.2
2018-12-09T23:07:31.317Z,1.3
2018-12-09T23:10:31.509Z,1.2
2018-12-09T23:13:31.335Z,1.2
2018-12-09T23:16:31.040Z,1.2
2018-12-09T23:19:31.651Z,1.4
2018-12-09T23:22:32.102Z,1.4
2018-12-09T23:25:31.463Z,2.2
2018-12-09T23:28:31.163Z,1.3
2018-12-09T23:31:31.223Z,1.9
2018-12-09T23:34:30.888Z,1.5
2018-12-09T23:37:31.527Z,1.4
2018-12-09T23:40:31.138Z,1.1
2018-12-09T23:43:30.966Z,1.4
2018-12-09T23:46:31.288Z,1.6
2018-12-09T23:49:31.140Z,1.2
2018-12-09T23:52:31.685Z,1.3
2018-12-09T23:55:31.217Z,1.2
2018-12-09T23:58:31.798Z,1.2
